createdAt,value
2022-09-17T00:00:28.188Z,21.08
2022-09-17T00:03:14.144Z,21.04
2022-09-17T00:06:07.478Z,20.69
2022-09-17T00:08:54.016Z,20.59
2022-09-17T00:11:42.157Z,20.43
2022-09-17T00:14:28.410Z,20.59
2022-09-17T00:17:14.412Z,20.80
2022-09-17T00:20:00.295Z,20.84
2022-09-17T00:22:46.144Z,20.82
2022-09-17T00:25:32.088Z,20.94
2022-09-17T00:28:18.238Z,20.99
2022-09-17T00:31:09.478Z,21.01
2022-09-17T00:33:55.576Z,21.04
2022-09-17T00:36:41.956Z,21.06
2022-09-17T00:39:28.100Z,21.07
2022-09-17T00:42:14.848Z,21.11
2022-09-17T00:45:01.455Z,21.10
2022-09-17T00:47:59.002Z,21.08
2022-09-17T00:50:45.199Z,21.12
2022-09-17T00:53:31.666Z,21.14
2022-09-17T00:56:23.308Z,21.10
2022-09-17T00:59:09.862Z,21.14
2022-09-17T01:01:55.995Z,21.14
2022-09-17T01:04:42.970Z,21.13
2022-09-17T01:07:42.520Z,21.02
2022-09-17T01:10:46.933Z,21.14
2022-09-17T01:13:54.536Z,21.10
2022-09-17T01:17:03.339Z,21.11
2022-09-17T01:20:09.267Z,21.14
2022-09-17T01:23:37.771Z,21.14
2022-09-17T01:26:32.800Z,21.12
2022-09-17T01:29:24.586Z,21.16
2022-09-17T01:32:20.665Z,21.03
2022-09-17T01:35:13.474Z,21.06
2022-09-17T01:38:05.412Z,21.15
2022-09-17T01:40:54.719Z,21.15
2022-09-17T01:44:09.841Z,21.04
2022-09-17T01:47:11.061Z,20.79
2022-09-17T01:50:11.906Z,20.78
2022-09-17T01:52:58.373Z,21.02
2022-09-17T01:55:45.939Z,20.95
2022-09-17T01:58:35.602Z,21.05
2022-09-17T02:01:22.320Z,21.01
2022-09-17T02:04:13.715Z,21.05
2022-09-17T02:07:04.720Z,21.09
2022-09-17T02:09:57.551Z,21.05
2022-09-17T02:12:47.261Z,20.97
2022-09-17T02:15:37.830Z,20.62
2022-09-17T02:18:28.729Z,20.60
2022-09-17T02:21:26.864Z,20.78
2022-09-17T02:24:31.374Z,20.52
2022-09-17T02:27:25.090Z,20.64
2022-09-17T02:30:11.154Z,20.59
2022-09-17T02:32:57.413Z,20.75
2022-09-17T02:35:44.304Z,20.79
2022-09-17T02:38:31.129Z,20.76
2022-09-17T02:41:21.017Z,20.83
2022-09-17T02:44:20.904Z,20.60
2022-09-17T02:47:25.046Z,20.62
2022-09-17T02:50:30.942Z,20.38
2022-09-17T02:53:44.714Z,20.02
2022-09-17T02:56:45.869Z,20.31
2022-09-17T02:59:59.490Z,20.51
2022-09-17T03:02:56.490Z,20.36
2022-09-17T03:05:42.835Z,20.38
2022-09-17T03:08:31.078Z,20.59
2022-09-17T03:11:16.955Z,20.53
2022-09-17T03:14:02.797Z,20.53
2022-09-17T03:16:48.708Z,20.38
2022-09-17T03:19:34.572Z,20.63
2022-09-17T03:22:20.369Z,20.66
2022-09-17T03:25:06.701Z,20.64
2022-09-17T03:27:52.683Z,20.73
2022-09-17T03:30:38.761Z,20.81
2022-09-17T03:33:24.940Z,20.81
2022-09-17T03:36:10.765Z,20.85
2022-09-17T03:38:58.628Z,20.87
2022-09-17T03:41:44.597Z,20.82
2022-09-17T03:44:30.367Z,20.73
2022-09-17T03:47:17.059Z,20.83
2022-09-17T03:50:03.518Z,20.71
2022-09-17T03:52:49.294Z,20.53
2022-09-17T03:55:38.500Z,20.72
2022-09-17T03:58:24.673Z,20.71
2022-09-17T04:01:10.637Z,20.80
2022-09-17T04:03:57.423Z,20.76
2022-09-17T04:06:43.706Z,20.71
2022-09-17T04:09:30.047Z,20.77
2022-09-17T04:12:15.893Z,20.77
2022-09-17T04:15:01.667Z,20.79
2022-09-17T04:17:47.653Z,20.77
2022-09-17T04:20:33.926Z,20.74
2022-09-17T04:23:19.672Z,20.67
2022-09-17T04:26:05.877Z,20.69
2022-09-17T04:28:51.985Z,20.63
2022-09-17T04:31:37.995Z,20.68
2022-09-17T04:34:23.959Z,20.38
2022-09-17T04:37:09.874Z,20.47
2022-09-17T04:39:55.922Z,20.54
2022-09-17T04:42:42.129Z,20.53
2022-09-17T04:45:27.979Z,20.57
2022-09-17T04:48:13.968Z,20.39
2022-09-17T04:51:00.134Z,20.47
2022-09-17T04:53:46.032Z,20.55
2022-09-17T04:56:31.907Z,20.57
2022-09-17T04:59:18.021Z,20.64
2022-09-17T05:02:04.345Z,20.66
2022-09-17T05:04:50.750Z,20.63
2022-09-17T05:07:38.885Z,20.66
2022-09-17T05:10:25.500Z,20.65
2022-09-17T05:13:11.740Z,20.71
2022-09-17T05:15:57.650Z,20.76
2022-09-17T05:18:43.646Z,20.68
2022-09-17T05:21:30.029Z,20.77
2022-09-17T05:24:15.972Z,20.70
2022-09-17T05:27:01.966Z,20.19
2022-09-17T05:29:48.052Z,20.04
2022-09-17T05:32:35.155Z,20.34
2022-09-17T05:35:21.090Z,20.43
2022-09-17T05:38:09.639Z,20.54
2022-09-17T05:40:55.667Z,20.51
2022-09-17T05:43:43.780Z,20.41
2022-09-17T05:46:29.866Z,20.30
2022-09-17T05:49:16.151Z,20.43
2022-09-17T05:52:03.656Z,20.25
2022-09-17T05:54:49.952Z,20.25
2022-09-17T05:57:35.692Z,20.48
2022-09-17T06:00:21.650Z,20.26
2022-09-17T06:03:09.277Z,20.18
2022-09-17T06:05:56.947Z,20.36
2022-09-17T06:08:43.131Z,20.20
2022-09-17T06:11:29.107Z,20.27
2022-09-17T06:14:15.609Z,20.37
2022-09-17T06:17:01.593Z,20.39
2022-09-17T06:19:47.532Z,20.48
2022-09-17T06:22:33.701Z,20.45
2022-09-17T06:25:19.892Z,20.37
2022-09-17T06:28:05.972Z,20.48
2022-09-17T06:30:54.575Z,20.47
2022-09-17T06:33:41.116Z,20.38
2022-09-17T06:36:27.312Z,20.44
2022-09-17T06:39:13.337Z,20.46
2022-09-17T06:41:59.613Z,20.33
2022-09-17T06:44:47.934Z,20.35
2022-09-17T06:47:33.729Z,20.16
2022-09-17T06:50:20.015Z,20.27
2022-09-17T06:53:06.092Z,20.17
2022-09-17T06:55:51.886Z,20.05
2022-09-17T06:58:38.325Z,19.95
2022-09-17T07:01:24.212Z,20.15
2022-09-17T07:04:10.174Z,20.17
2022-09-17T07:06:56.137Z,20.18
2022-09-17T07:09:42.272Z,20.06
2022-09-17T07:12:28.423Z,20.16
2022-09-17T07:15:15.873Z,20.37
2022-09-17T07:18:08.608Z,20.21
2022-09-17T07:21:02.613Z,20.33
2022-09-17T07:23:48.714Z,20.13
2022-09-17T07:26:34.796Z,20.23
2022-09-17T07:29:21.482Z,20.22
2022-09-17T07:32:07.933Z,20.21
2022-09-17T07:34:53.974Z,20.34
2022-09-17T07:37:40.149Z,20.18
2022-09-17T07:40:26.210Z,20.23
2022-09-17T07:43:12.194Z,20.17
2022-09-17T07:45:59.171Z,20.29
2022-09-17T07:48:46.812Z,20.30
2022-09-17T07:51:32.534Z,20.30
2022-09-17T07:54:19.254Z,20.12
2022-09-17T07:57:05.794Z,20.31
2022-09-17T07:59:52.014Z,20.36
2022-09-17T08:02:38.009Z,20.39
2022-09-17T08:05:24.977Z,20.43
2022-09-17T08:08:10.971Z,20.36
2022-09-17T08:11:00.591Z,20.20
2022-09-17T08:13:51.182Z,20.27
2022-09-17T08:16:37.192Z,20.37
2022-09-17T08:19:23.105Z,20.45
2022-09-17T08:22:08.816Z,20.44
2022-09-17T08:24:54.711Z,20.56
2022-09-17T08:27:40.843Z,20.51
2022-09-17T08:30:26.694Z,20.55
2022-09-17T08:33:12.621Z,20.55
2022-09-17T08:36:01.276Z,20.67
2022-09-17T08:38:47.291Z,20.66
2022-09-17T08:42:02.452Z,20.68
2022-09-17T08:44:51.846Z,20.76
2022-09-17T08:47:40.942Z,20.76
2022-09-17T08:50:31.170Z,20.68
2022-09-17T08:53:32.343Z,20.72
2022-09-17T08:56:19.413Z,20.76
2022-09-17T08:59:48.217Z,20.63
2022-09-17T09:02:52.852Z,20.70
2022-09-17T09:05:46.133Z,20.69
2022-09-17T09:08:43.664Z,20.71
2022-09-17T09:11:31.015Z,20.76
2022-09-17T09:14:24.535Z,20.68
2022-09-17T09:17:11.058Z,20.74
2022-09-17T09:19:58.022Z,20.61
2022-09-17T09:22:50.827Z,20.61
2022-09-17T09:25:43.174Z,20.59
2022-09-17T09:28:35.476Z,20.64
2022-09-17T09:31:47.483Z,20.64
2022-09-17T09:34:34.837Z,20.71
2022-09-17T09:37:26.935Z,20.77
2022-09-17T09:40:36.659Z,20.57
2022-09-17T09:43:46.577Z,20.54
2022-09-17T09:46:48.338Z,20.57
2022-09-17T09:49:36.631Z,20.60
2022-09-17T09:52:39.025Z,20.69
2022-09-17T09:55:34.142Z,20.33
2022-09-17T09:58:41.736Z,20.82
2022-09-17T10:01:29.176Z,20.78
2022-09-17T10:04:35.184Z,20.86
2022-09-17T10:07:21.247Z,21.02
2022-09-17T10:10:10.924Z,21.03
2022-09-17T10:13:07.436Z,21.05
2022-09-17T10:15:53.504Z,21.05
2022-09-17T10:18:39.836Z,21.16
2022-09-17T10:21:39.777Z,21.18
2022-09-17T10:24:27.866Z,21.23
2022-09-17T10:27:16.945Z,21.27
2022-09-17T10:30:09.076Z,21.28
2022-09-17T10:33:12.096Z,21.11
2022-09-17T10:36:04.534Z,21.32
2022-09-17T10:38:50.453Z,21.23
2022-09-17T10:41:36.289Z,21.34
2022-09-17T10:44:24.334Z,21.43
2022-09-17T10:47:31.178Z,21.38
2022-09-17T10:50:19.415Z,21.55
2022-09-17T10:53:07.363Z,21.59
2022-09-17T10:56:14.651Z,21.66
2022-09-17T10:59:09.600Z,21.70
2022-09-17T11:02:14.346Z,21.83
2022-09-17T11:05:03.487Z,21.92
2022-09-17T11:07:57.273Z,22.01
2022-09-17T11:11:01.919Z,21.97
2022-09-17T11:14:09.690Z,21.94
2022-09-17T11:17:17.597Z,22.13
2022-09-17T11:20:34.352Z,22.15
2022-09-17T11:23:26.464Z,22.22
2022-09-17T11:26:21.479Z,22.46
2022-09-17T11:29:41.611Z,22.51
2022-09-17T11:32:52.128Z,22.51
2022-09-17T11:35:46.895Z,22.43
2022-09-17T11:38:44.026Z,22.68
2022-09-17T11:41:42.665Z,22.40
2022-09-17T11:44:33.651Z,22.15
2022-09-17T11:47:24.243Z,21.98
2022-09-17T11:51:12.106Z,22.24
2022-09-17T11:54:24.186Z,22.19
2022-09-17T11:57:27.942Z,22.20
2022-09-17T12:00:20.010Z,22.32
2022-09-17T12:03:15.939Z,22.13
2022-09-17T12:06:13.444Z,22.32
2022-09-17T12:09:03.920Z,22.32
2022-09-17T12:11:56.313Z,22.17
2022-09-17T12:14:54.193Z,22.22
2022-09-17T12:18:32.109Z,22.12
2022-09-17T12:21:23.230Z,22.14
2022-09-17T12:24:26.488Z,22.12
2022-09-17T12:27:15.784Z,22.21
2022-09-17T12:30:20.527Z,21.99
2022-09-17T12:33:14.373Z,21.86
2022-09-17T12:36:19.676Z,22.02
2022-09-17T12:39:54.968Z,21.77
2022-09-17T12:42:47.853Z,22.02
2022-09-17T12:46:15.349Z,22.12
2022-09-17T12:49:23.405Z,22.15
2022-09-17T12:52:15.505Z,22.23
2022-09-17T12:55:01.299Z,22.32
2022-09-17T12:58:05.434Z,22.40
2022-09-17T13:01:02.147Z,22.62
2022-09-17T13:03:56.524Z,22.64
2022-09-17T13:07:06.536Z,22.37
2022-09-17T13:10:12.836Z,22.75
2022-09-17T13:13:07.991Z,22.79
2022-09-17T13:15:57.975Z,22.83
2022-09-17T13:19:20.355Z,22.62
2022-09-17T13:22:19.649Z,22.29
2022-09-17T13:25:09.054Z,22.71
2022-09-17T13:28:24.689Z,22.58
2022-09-17T13:31:11.962Z,22.83
2022-09-17T15:26:29.235Z,20.77
2022-09-17T15:29:15.680Z,21.13
2022-09-17T15:32:06.378Z,21.18
2022-09-17T15:35:15.615Z,21.29
2022-09-17T15:38:22.304Z,21.23
2022-09-17T15:41:27.801Z,21.65
2022-09-17T15:44:30.442Z,21.73
2022-09-17T15:47:47.748Z,21.71
2022-09-17T15:50:35.785Z,21.70
2022-09-17T15:53:32.645Z,21.75
2022-09-17T15:56:21.986Z,21.58
2022-09-17T15:59:32.012Z,21.72
2022-09-17T16:02:30.461Z,21.93
2022-09-17T16:05:19.202Z,21.46
2022-09-17T16:08:19.524Z,21.86
2022-09-17T16:11:05.763Z,21.88
2022-09-17T16:13:55.893Z,21.94
2022-09-17T16:16:42.051Z,21.59
2022-09-17T16:19:27.861Z,21.81
2022-09-17T16:22:13.834Z,21.72
2022-09-17T16:24:59.710Z,21.83
2022-09-17T16:28:00.065Z,21.90
2022-09-17T16:30:51.750Z,21.77
2022-09-17T16:33:37.814Z,21.94
2022-09-17T16:36:23.700Z,22.00
2022-09-17T16:39:09.592Z,21.90
2022-09-17T16:41:55.542Z,22.06
2022-09-17T16:44:41.633Z,21.91
2022-09-17T16:47:27.600Z,21.98
2022-09-17T16:50:15.636Z,21.98
2022-09-17T16:53:05.403Z,22.07
2022-09-17T16:55:51.424Z,22.06
2022-09-17T16:58:38.863Z,21.92
2022-09-17T17:01:25.066Z,22.11
2022-09-17T17:04:11.069Z,22.11
2022-09-17T17:06:57.088Z,22.06
2022-09-17T17:09:42.854Z,22.04
2022-09-17T17:12:28.819Z,22.06
2022-09-17T17:15:14.993Z,22.03
2022-09-17T17:18:00.967Z,21.96
2022-09-17T17:20:48.711Z,21.97
2022-09-17T17:23:35.862Z,21.99
2022-09-17T17:26:21.929Z,21.95
2022-09-17T17:29:09.114Z,21.94
2022-09-17T17:31:55.257Z,21.83
2022-09-17T17:34:41.446Z,21.85
2022-09-17T17:37:27.516Z,21.87
2022-09-17T17:40:13.766Z,21.80
2022-09-17T17:42:59.675Z,21.81
2022-09-17T17:45:45.648Z,21.77
2022-09-17T17:48:31.558Z,21.77
2022-09-17T17:51:23.873Z,21.71
2022-09-17T17:54:10.117Z,21.68
2022-09-17T17:56:56.447Z,21.68
2022-09-17T17:59:42.499Z,21.66
2022-09-17T18:02:32.525Z,21.67
2022-09-17T18:05:19.040Z,21.63
2022-09-17T18:08:04.766Z,21.60
2022-09-17T18:10:55.448Z,21.46
2022-09-17T18:13:41.742Z,21.53
2022-09-17T18:16:29.258Z,21.51
2022-09-17T18:19:15.534Z,21.47
2022-09-17T18:22:02.109Z,21.45
2022-09-17T18:24:48.218Z,21.43
2022-09-17T18:27:34.011Z,21.34
2022-09-17T18:30:20.084Z,21.29
2022-09-17T18:33:06.366Z,21.38
2022-09-17T18:35:56.997Z,21.37
2022-09-17T18:38:43.150Z,21.27
2022-09-17T18:41:29.795Z,21.25
2022-09-17T18:44:16.081Z,21.29
2022-09-17T18:47:02.802Z,21.29
2022-09-17T18:49:48.881Z,21.26
2022-09-17T18:52:35.264Z,21.19
2022-09-17T18:55:21.774Z,21.19
2022-09-17T18:58:07.504Z,21.15
2022-09-17T19:00:53.559Z,21.13
2022-09-17T19:03:40.287Z,21.18
2022-09-17T19:06:27.730Z,21.18
2022-09-17T19:09:13.783Z,21.19
2022-09-17T19:12:00.112Z,21.08
2022-09-17T19:14:46.098Z,21.13
2022-09-17T19:17:31.992Z,21.11
2022-09-17T19:20:19.920Z,21.16
2022-09-17T19:23:07.119Z,21.11
2022-09-17T19:25:52.945Z,21.15
2022-09-17T19:28:38.981Z,21.21
2022-09-17T19:31:25.105Z,21.21
2022-09-17T19:34:11.333Z,21.19
2022-09-17T19:36:57.146Z,21.18
2022-09-17T19:39:43.601Z,21.18
2022-09-17T19:42:29.947Z,21.15
2022-09-17T19:45:17.022Z,21.14
2022-09-17T19:48:05.916Z,21.13
2022-09-17T19:50:53.523Z,21.04
2022-09-17T19:53:39.353Z,21.08
2022-09-17T19:56:27.120Z,21.06
2022-09-17T19:59:12.956Z,21.10
2022-09-17T20:01:59.207Z,21.03
2022-09-17T20:04:45.394Z,21.09
2022-09-17T20:07:31.676Z,21.09
2022-09-17T20:10:17.712Z,21.03
2022-09-17T20:13:04.199Z,21.07
2022-09-17T20:15:50.291Z,21.08
2022-09-17T20:18:36.760Z,21.10
2022-09-17T20:21:30.438Z,21.10
2022-09-17T20:24:16.439Z,20.99
2022-09-17T20:27:02.311Z,21.09
2022-09-17T20:29:48.258Z,21.05
2022-09-17T20:32:34.217Z,21.03
2022-09-17T20:35:20.037Z,21.05
2022-09-17T20:38:59.989Z,21.08
2022-09-17T20:41:14.140Z,21.07
2022-09-17T20:44:00.146Z,20.99
2022-09-17T20:46:46.609Z,21.01
2022-09-17T20:49:33.721Z,21.01
2022-09-17T20:52:21.262Z,20.96
2022-09-17T20:55:08.069Z,20.56
2022-09-17T20:57:54.309Z,20.67
2022-09-17T21:00:42.686Z,20.69
2022-09-17T21:03:30.070Z,20.47
2022-09-17T21:06:24.329Z,20.32
2022-09-17T21:09:12.395Z,20.55
2022-09-17T21:11:58.544Z,20.46
2022-09-17T21:14:44.490Z,20.35
2022-09-17T21:17:31.874Z,20.28
2022-09-17T21:20:17.774Z,20.06
2022-09-17T21:23:03.685Z,20.04
2022-09-17T21:25:49.781Z,19.90
2022-09-17T21:28:36.376Z,19.81
2022-09-17T21:31:32.090Z,19.63
2022-09-17T21:34:18.633Z,19.48
2022-09-17T21:37:05.621Z,19.47
2022-09-17T21:39:51.895Z,19.23
2022-09-17T21:42:38.928Z,19.32
2022-09-17T21:45:25.049Z,19.09
2022-09-17T21:48:10.926Z,19.07
2022-09-17T21:51:11.153Z,19.03
2022-09-17T21:53:59.468Z,18.80
2022-09-17T21:56:45.995Z,18.75
2022-09-17T21:59:32.255Z,18.52
2022-09-17T22:02:18.560Z,18.47
2022-09-17T22:05:05.047Z,18.27
2022-09-17T22:07:51.337Z,18.13
2022-09-17T22:10:37.159Z,17.92
2022-09-17T22:13:23.234Z,17.74
2022-09-17T22:16:10.187Z,17.67
2022-09-17T22:18:56.562Z,17.53
2022-09-17T22:21:46.041Z,17.31
2022-09-17T22:24:32.066Z,17.01
2022-09-17T22:27:17.853Z,17.06
2022-09-17T22:30:04.001Z,16.79
2022-09-17T22:32:50.062Z,16.72
2022-09-17T22:35:36.096Z,16.73
2022-09-17T22:38:22.307Z,16.63
2022-09-17T22:41:12.674Z,16.37
2022-09-17T22:44:04.654Z,16.57
2022-09-17T22:46:51.710Z,16.29
2022-09-17T22:49:38.089Z,16.32
2022-09-17T22:52:24.130Z,16.17
2022-09-17T22:55:10.534Z,16.19
2022-09-17T22:57:56.392Z,16.09
2022-09-17T23:00:42.473Z,16.02
2022-09-17T23:03:28.953Z,15.92
2022-09-17T23:06:17.698Z,15.93
2022-09-17T23:09:04.089Z,15.61
2022-09-17T23:11:50.304Z,15.51
2022-09-17T23:14:36.256Z,15.60
2022-09-17T23:17:25.964Z,15.58
2022-09-17T23:20:15.474Z,15.39
2022-09-17T23:23:01.301Z,15.40
2022-09-17T23:25:47.529Z,15.28
2022-09-17T23:28:37.325Z,15.23
2022-09-17T23:31:26.143Z,15.05
2022-09-17T23:34:12.248Z,14.83
2022-09-17T23:36:58.372Z,14.84
2022-09-17T23:39:44.233Z,14.82
2022-09-17T23:42:34.080Z,14.70
2022-09-17T23:45:20.048Z,14.71
2022-09-17T23:48:05.888Z,14.53
2022-09-17T23:50:51.878Z,14.50
2022-09-17T23:53:38.748Z,14.55
2022-09-17T23:56:26.328Z,14.52
2022-09-17T23:59:12.755Z,14.30
